createdAt,value
2017-09-17T00:00:04.749Z,2.70
2017-09-17T00:02:33.409Z,2.90
2017-09-17T00:05:01.949Z,2.40
2017-09-17T00:07:31.128Z,2.40
2017-09-17T00:10:00.965Z,3.63
2017-09-17T00:12:30.348Z,1.50
2017-09-17T00:14:59.709Z,1.90
2017-09-17T00:17:28.337Z,1.95
2017-09-17T00:19:57.724Z,1.58
2017-09-17T00:22:26.264Z,2.60
2017-09-17T00:24:54.593Z,1.40
2017-09-17T00:27:23.062Z,1.33
2017-09-17T00:29:51.462Z,1.60
2017-09-17T00:32:20.550Z,2.05
2017-09-17T00:34:49.774Z,1.52
2017-09-17T00:37:17.921Z,2.00
2017-09-17T00:39:47.141Z,2.58
2017-09-17T00:42:15.571Z,1.50
2017-09-17T00:44:43.771Z,2.30
2017-09-17T00:47:13.152Z,2.90
2017-09-17T00:49:41.451Z,1.97
2017-09-17T00:52:11.018Z,1.77
2017-09-17T00:54:39.409Z,2.33
2017-09-17T00:57:07.801Z,2.50
2017-09-17T00:59:37.093Z,1.90
2017-09-17T01:02:05.614Z,1.60
2017-09-17T01:04:34.169Z,1.50
2017-09-17T01:07:03.708Z,1.65
2017-09-17T01:09:32.209Z,1.90
2017-09-17T01:12:00.532Z,1.77
2017-09-17T01:14:29.847Z,1.48
2017-09-17T01:16:58.232Z,1.45
2017-09-17T01:19:26.920Z,1.40
2017-09-17T01:21:55.273Z,1.45
2017-09-17T01:24:23.658Z,1.40
2017-09-17T01:26:53.052Z,1.40
2017-09-17T01:29:21.907Z,1.60
2017-09-17T01:31:50.197Z,1.50
2017-09-17T01:34:18.410Z,1.45
2017-09-17T01:36:47.269Z,2.03
2017-09-17T01:39:15.631Z,2.12
2017-09-17T01:41:44.294Z,1.50
2017-09-17T01:44:12.814Z,1.55
2017-09-17T01:46:42.232Z,1.80
2017-09-17T01:49:11.574Z,1.50
2017-09-17T01:51:39.930Z,2.00
2017-09-17T01:54:08.112Z,2.42
2017-09-17T01:56:36.556Z,2.10
2017-09-17T01:59:05.021Z,2.60
2017-09-17T02:01:33.616Z,2.30
2017-09-17T02:04:02.912Z,2.90
2017-09-17T02:06:31.514Z,1.70
2017-09-17T02:09:00.599Z,1.70
2017-09-17T02:11:29.621Z,2.00
2017-09-17T02:13:58.092Z,1.90
2017-09-17T02:16:26.659Z,1.85
2017-09-17T02:18:55.956Z,1.73
2017-09-17T02:21:25.040Z,1.90
2017-09-17T02:23:53.535Z,2.20
2017-09-17T02:26:22.858Z,1.73
2017-09-17T02:28:51.192Z,1.55
2017-09-17T02:31:19.941Z,1.50
2017-09-17T02:33:48.449Z,1.90
2017-09-17T02:36:17.055Z,2.08
2017-09-17T02:38:47.045Z,1.90
2017-09-17T02:41:15.751Z,1.87
2017-09-17T02:43:44.058Z,1.80
2017-09-17T02:46:12.394Z,1.70
2017-09-17T02:48:40.645Z,1.60
2017-09-17T02:51:08.976Z,1.50
2017-09-17T02:53:38.145Z,1.45
2017-09-17T02:56:06.437Z,1.60
2017-09-17T02:58:35.537Z,2.00
2017-09-17T03:01:04.819Z,1.30
2017-09-17T03:03:33.375Z,1.70
2017-09-17T03:06:01.892Z,2.42
2017-09-17T03:08:30.891Z,1.77
2017-09-17T03:11:00.173Z,1.77
2017-09-17T03:13:28.485Z,2.00
2017-09-17T03:15:57.335Z,4.00
2017-09-17T03:18:26.056Z,5.65
2017-09-17T03:20:55.236Z,6.43
2017-09-17T03:23:24.377Z,5.53
2017-09-17T03:25:52.974Z,4.43
2017-09-17T03:28:21.600Z,3.42
2017-09-17T03:30:51.147Z,3.20
2017-09-17T03:33:19.708Z,3.37
2017-09-17T03:35:48.467Z,3.92
2017-09-17T03:38:16.694Z,2.83
2017-09-17T03:40:45.014Z,2.40
2017-09-17T03:43:13.395Z,2.58
2017-09-17T03:45:42.708Z,2.65
2017-09-17T03:48:11.775Z,4.55
2017-09-17T03:50:40.060Z,1.60
2017-09-17T03:53:08.293Z,2.12
2017-09-17T03:55:36.520Z,2.45
2017-09-17T03:58:05.707Z,1.83
2017-09-17T04:00:34.087Z,1.95
2017-09-17T04:03:02.549Z,2.00
2017-09-17T04:05:30.926Z,1.90
2017-09-17T04:07:59.326Z,1.98
2017-09-17T04:10:27.566Z,1.77
2017-09-17T04:12:56.073Z,2.00
2017-09-17T04:15:24.466Z,2.00
2017-09-17T04:17:53.586Z,2.78
2017-09-17T04:20:22.073Z,3.40
2017-09-17T04:22:50.371Z,2.25
2017-09-17T04:25:18.611Z,2.40
2017-09-17T04:27:47.051Z,3.10
2017-09-17T04:30:16.272Z,2.37
2017-09-17T04:32:45.236Z,2.10
2017-09-17T04:35:13.933Z,2.40
2017-09-17T04:37:42.301Z,2.20
2017-09-17T04:40:10.461Z,2.00
2017-09-17T04:42:39.005Z,1.90
2017-09-17T04:45:07.578Z,2.15
2017-09-17T04:47:36.817Z,2.25
2017-09-17T04:50:05.218Z,1.80
2017-09-17T04:52:33.718Z,1.80
2017-09-17T04:55:02.919Z,2.15
2017-09-17T04:57:32.303Z,2.40
2017-09-17T05:00:00.558Z,2.40
2017-09-17T05:02:29.052Z,2.75
2017-09-17T05:04:57.522Z,3.60
2017-09-17T05:07:26.015Z,5.00
2017-09-17T05:09:54.304Z,3.80
2017-09-17T05:12:22.675Z,3.00
2017-09-17T05:14:51.230Z,1.85
2017-09-17T05:17:19.628Z,2.53
2017-09-17T05:19:48.020Z,2.35
2017-09-17T05:22:17.371Z,1.95
2017-09-17T05:24:46.111Z,2.30
2017-09-17T05:27:15.317Z,2.50
2017-09-17T05:29:44.319Z,2.25
2017-09-17T05:32:12.665Z,2.85
2017-09-17T05:34:40.888Z,2.00
2017-09-17T05:37:09.088Z,2.45
2017-09-17T05:39:37.653Z,5.82
2017-09-17T05:42:06.251Z,2.80
2017-09-17T05:44:34.774Z,3.10
2017-09-17T05:47:04.173Z,5.72
2017-09-17T05:49:33.289Z,4.37
2017-09-17T05:52:01.788Z,3.15
2017-09-17T05:54:30.456Z,3.60
2017-09-17T05:56:59.117Z,3.47
2017-09-17T05:59:28.638Z,4.10
2017-09-17T06:01:57.208Z,3.62
2017-09-17T06:04:26.355Z,3.72
2017-09-17T06:06:54.796Z,4.68
2017-09-17T06:09:23.409Z,3.70
2017-09-17T06:11:52.058Z,3.85
2017-09-17T06:14:21.339Z,3.30
2017-09-17T06:16:50.495Z,2.92
2017-09-17T06:19:18.695Z,4.30
2017-09-17T06:21:47.913Z,4.82
2017-09-17T06:24:17.149Z,4.87
2017-09-17T06:26:45.559Z,4.30
2017-09-17T06:29:14.152Z,4.50
2017-09-17T06:31:42.851Z,4.05
2017-09-17T06:34:12.180Z,4.85
2017-09-17T06:36:40.730Z,5.05
2017-09-17T06:39:08.996Z,5.35
2017-09-17T06:41:37.496Z,4.45
2017-09-17T06:44:06.861Z,4.10
2017-09-17T06:46:35.028Z,3.83
2017-09-17T06:49:03.532Z,4.70
2017-09-17T06:51:31.773Z,4.37
2017-09-17T06:54:00.186Z,5.10
2017-09-17T06:56:28.244Z,5.18
2017-09-17T06:58:56.429Z,4.10
2017-09-17T07:01:24.703Z,4.60
2017-09-17T07:03:53.497Z,5.90
2017-09-17T07:06:21.675Z,4.60
2017-09-17T07:08:50.761Z,5.30
2017-09-17T07:11:19.038Z,5.15
2017-09-17T07:13:47.325Z,5.25
2017-09-17T07:16:16.679Z,4.70
2017-09-17T07:18:45.087Z,5.10
2017-09-17T07:21:13.335Z,4.70
2017-09-17T07:23:41.976Z,5.62
2017-09-17T07:26:11.276Z,5.73
2017-09-17T07:28:40.257Z,5.65
2017-09-17T07:31:09.732Z,6.35
2017-09-17T07:33:38.122Z,5.25
2017-09-17T07:36:06.203Z,6.30
2017-09-17T07:38:34.487Z,6.20
2017-09-17T07:41:03.956Z,5.40
2017-09-17T07:43:32.072Z,6.22
2017-09-17T07:46:01.572Z,5.95
2017-09-17T07:48:30.992Z,6.70
2017-09-17T07:50:59.661Z,5.55
2017-09-17T07:53:28.448Z,6.80
2017-09-17T07:55:57.733Z,5.95
2017-09-17T07:58:26.724Z,9.07
2017-09-17T08:00:55.814Z,6.35
2017-09-17T08:03:24.334Z,6.85
2017-09-17T08:05:52.821Z,7.10
2017-09-17T08:08:21.200Z,5.95
2017-09-17T08:10:49.216Z,6.53
2017-09-17T08:13:17.597Z,6.00
2017-09-17T08:15:46.758Z,7.65
2017-09-17T08:18:15.302Z,8.32
2017-09-17T08:20:43.700Z,6.00
2017-09-17T08:23:12.141Z,4.55
2017-09-17T08:25:40.702Z,4.70
2017-09-17T08:28:08.872Z,7.90
2017-09-17T08:30:37.476Z,4.97
2017-09-17T08:33:07.056Z,4.35
2017-09-17T08:35:35.676Z,4.40
2017-09-17T08:38:06.551Z,5.50
2017-09-17T08:40:34.954Z,5.10
2017-09-17T08:43:03.353Z,5.25
2017-09-17T08:45:31.613Z,6.10
2017-09-17T08:48:00.727Z,5.70
2017-09-17T08:50:29.934Z,4.62
2017-09-17T08:52:59.331Z,4.00
2017-09-17T08:55:27.632Z,3.70
2017-09-17T08:57:56.317Z,5.30
2017-09-17T09:00:24.665Z,6.12
2017-09-17T09:02:52.833Z,6.90
2017-09-17T09:05:21.473Z,7.57
2017-09-17T09:07:49.694Z,8.63
2017-09-17T09:10:18.996Z,7.05
2017-09-17T09:12:47.394Z,5.57
2017-09-17T09:15:16.676Z,5.90
2017-09-17T09:17:44.836Z,5.63
2017-09-17T09:20:13.335Z,5.50
2017-09-17T09:22:41.872Z,5.50
2017-09-17T09:25:10.120Z,6.40
2017-09-17T09:27:38.659Z,5.10
2017-09-17T09:30:07.219Z,5.50
2017-09-17T09:32:35.619Z,8.53
2017-09-17T09:35:03.998Z,6.90
2017-09-17T09:37:32.493Z,7.10
2017-09-17T09:40:01.708Z,6.82
2017-09-17T09:42:30.251Z,7.15
2017-09-17T09:44:59.570Z,6.65
2017-09-17T09:47:28.793Z,6.90
2017-09-17T09:49:57.146Z,8.32
2017-09-17T09:52:26.412Z,6.32
2017-09-17T09:54:55.029Z,6.60
2017-09-17T09:57:24.226Z,9.65
2017-09-17T09:59:53.465Z,6.93
2017-09-17T10:02:21.712Z,7.32
2017-09-17T10:04:50.812Z,6.90
2017-09-17T10:07:19.064Z,6.70
2017-09-17T10:09:48.270Z,6.40
2017-09-17T10:12:17.584Z,5.90
2017-09-17T10:14:45.932Z,7.32
2017-09-17T10:17:15.292Z,6.65
2017-09-17T10:19:44.044Z,7.10
2017-09-17T10:22:12.576Z,6.80
2017-09-17T10:24:41.069Z,6.37
2017-09-17T10:27:09.609Z,7.32
2017-09-17T10:29:37.914Z,7.18
2017-09-17T10:32:06.431Z,8.00
2017-09-17T10:34:35.614Z,6.82
2017-09-17T10:37:04.001Z,6.65
2017-09-17T10:39:32.263Z,6.80
2017-09-17T10:42:00.349Z,8.05
2017-09-17T10:44:28.614Z,7.80
2017-09-17T10:46:56.750Z,7.15
2017-09-17T10:49:24.868Z,7.23
2017-09-17T10:51:53.966Z,7.45
2017-09-17T10:54:23.406Z,7.53
2017-09-17T10:56:51.669Z,8.93
2017-09-17T10:59:20.031Z,7.20
2017-09-17T11:01:49.568Z,8.03
2017-09-17T11:04:18.315Z,7.30
2017-09-17T11:06:47.604Z,6.50
2017-09-17T11:09:15.987Z,8.23
2017-09-17T11:11:44.342Z,6.33
2017-09-17T11:14:12.769Z,6.83
2017-09-17T11:16:41.392Z,6.40
2017-09-17T11:19:09.951Z,6.83
2017-09-17T11:21:38.596Z,6.33
2017-09-17T11:24:07.916Z,6.70
2017-09-17T11:26:37.031Z,6.60
2017-09-17T11:29:05.218Z,5.37
2017-09-17T11:31:33.838Z,6.10
2017-09-17T11:34:02.301Z,6.37
2017-09-17T11:36:30.938Z,6.00
2017-09-17T11:38:59.448Z,6.10
2017-09-17T11:41:27.857Z,4.80
2017-09-17T11:43:56.349Z,4.30
2017-09-17T11:46:24.920Z,5.37
2017-09-17T11:48:53.469Z,4.37
2017-09-17T11:51:22.225Z,4.83
2017-09-17T11:53:50.778Z,4.47
2017-09-17T11:56:19.285Z,5.23
2017-09-17T11:58:48.256Z,4.37
2017-09-17T12:01:16.606Z,4.70
2017-09-17T12:03:45.008Z,4.80
2017-09-17T12:06:13.495Z,4.20
2017-09-17T12:08:42.077Z,4.47
2017-09-17T12:11:10.331Z,4.40
2017-09-17T12:13:38.800Z,4.83
2017-09-17T12:16:07.342Z,4.10
2017-09-17T12:18:35.877Z,4.13
2017-09-17T12:21:05.800Z,4.50
2017-09-17T12:23:33.980Z,4.60
2017-09-17T12:26:02.252Z,4.00
2017-09-17T12:28:30.630Z,4.90
2017-09-17T12:31:01.257Z,4.33
2017-09-17T12:33:29.834Z,5.37
2017-09-17T12:35:59.138Z,4.67
2017-09-17T12:38:27.647Z,4.40
2017-09-17T12:40:56.814Z,3.80
2017-09-17T12:43:25.116Z,4.90
2017-09-17T12:45:54.091Z,4.40
2017-09-17T12:48:23.308Z,3.97
2017-09-17T12:50:52.608Z,4.13
2017-09-17T12:53:21.192Z,5.30
2017-09-17T12:55:50.472Z,5.07
2017-09-17T12:58:19.802Z,4.77
2017-09-17T13:00:48.463Z,4.93
2017-09-17T13:03:17.556Z,4.10
2017-09-17T13:05:46.947Z,6.80
2017-09-17T13:08:15.545Z,4.50
2017-09-17T13:10:44.719Z,3.83
2017-09-17T13:13:13.018Z,3.93
2017-09-17T13:15:41.591Z,3.50
2017-09-17T13:18:10.894Z,3.20
2017-09-17T13:20:40.038Z,6.57
2017-09-17T13:23:08.433Z,4.40
2017-09-17T13:25:36.935Z,4.20
2017-09-17T13:28:05.444Z,3.30
2017-09-17T13:30:34.718Z,4.43
2017-09-17T13:33:03.174Z,4.37
2017-09-17T13:35:31.814Z,2.97
2017-09-17T13:38:00.405Z,3.03
2017-09-17T13:40:29.176Z,2.73
2017-09-17T13:42:58.340Z,3.00
2017-09-17T13:45:26.802Z,2.30
2017-09-17T13:47:55.211Z,3.73
2017-09-17T13:50:23.921Z,1.80
2017-09-17T13:52:52.509Z,1.73
2017-09-17T13:55:20.813Z,2.80
2017-09-17T13:57:49.354Z,2.00
2017-09-17T14:00:21.007Z,3.47
2017-09-17T14:02:51.097Z,1.50
2017-09-17T14:05:25.010Z,1.63
2017-09-17T14:07:53.729Z,3.17
2017-09-17T14:13:33.564Z,1.90
2017-09-17T14:16:03.547Z,2.00
2017-09-17T14:18:31.987Z,1.90
2017-09-17T14:21:01.336Z,2.07
2017-09-17T14:23:29.735Z,2.80
2017-09-17T14:25:58.282Z,3.47
2017-09-17T14:28:27.009Z,1.90
2017-09-17T14:30:55.193Z,2.73
2017-09-17T14:33:24.635Z,3.13
2017-09-17T14:35:53.072Z,3.63
2017-09-17T14:38:21.972Z,2.50
2017-09-17T14:40:51.192Z,2.10
2017-09-17T14:43:19.519Z,2.00
2017-09-17T14:45:48.026Z,3.03
2017-09-17T14:48:17.148Z,1.63
2017-09-17T14:50:45.786Z,2.10
2017-09-17T14:53:14.412Z,2.80
2017-09-17T14:55:43.269Z,1.50
2017-09-17T14:58:12.673Z,2.27
2017-09-17T15:00:42.218Z,2.50
2017-09-17T15:03:10.877Z,3.30
2017-09-17T15:05:40.169Z,2.90
2017-09-17T15:08:09.629Z,2.70
2017-09-17T15:10:38.086Z,3.20
2017-09-17T15:13:06.614Z,1.90
2017-09-17T15:15:36.051Z,2.73
2017-09-17T15:18:04.428Z,2.50
2017-09-17T15:20:32.674Z,2.10
2017-09-17T15:23:01.874Z,2.30
2017-09-17T15:25:30.854Z,1.67
2017-09-17T15:27:59.371Z,1.40
2017-09-17T15:30:27.928Z,1.87
2017-09-17T15:32:56.020Z,2.20
2017-09-17T15:35:24.476Z,1.90
2017-09-17T15:37:52.965Z,2.80
2017-09-17T15:40:22.604Z,2.77
2017-09-17T15:42:51.165Z,5.57
2017-09-17T15:45:20.357Z,2.20
2017-09-17T15:47:49.750Z,1.90
2017-09-17T15:50:19.012Z,1.80
2017-09-17T15:52:47.592Z,1.60
2017-09-17T15:55:16.020Z,2.83
2017-09-17T15:57:45.411Z,4.23
2017-09-17T16:00:14.728Z,3.00
2017-09-17T16:02:43.996Z,4.10
2017-09-17T16:05:12.575Z,3.13
2017-09-17T16:07:41.306Z,3.33
2017-09-17T16:10:09.947Z,1.90
2017-09-17T16:12:38.460Z,3.30
2017-09-17T16:15:07.798Z,2.20
2017-09-17T16:17:37.637Z,2.23
2017-09-17T16:20:06.239Z,2.20
2017-09-17T16:22:35.421Z,2.77
2017-09-17T16:25:03.857Z,2.60
2017-09-17T16:27:32.399Z,5.33
2017-09-17T16:30:01.682Z,2.30
2017-09-17T16:32:29.933Z,6.43
2017-09-17T16:34:58.702Z,3.27
2017-09-17T16:37:27.143Z,3.90
2017-09-17T16:39:56.568Z,3.00
2017-09-17T16:42:25.018Z,3.87
2017-09-17T16:44:54.488Z,2.80
2017-09-17T16:47:23.053Z,4.00
2017-09-17T16:49:51.494Z,2.30
2017-09-17T16:52:20.779Z,2.03
2017-09-17T16:54:49.357Z,2.10
2017-09-17T16:57:17.977Z,2.83
2017-09-17T16:59:46.620Z,5.90
2017-09-17T17:02:15.034Z,2.13
2017-09-17T17:04:44.368Z,1.73
2017-09-17T17:07:12.791Z,13.67
2017-09-17T17:09:42.164Z,2.83
2017-09-17T17:12:10.653Z,4.40
2017-09-17T17:14:39.461Z,2.07
2017-09-17T17:17:08.647Z,2.80
2017-09-17T17:19:37.427Z,3.30
2017-09-17T17:22:06.031Z,2.33
2017-09-17T17:24:35.542Z,2.77
2017-09-17T17:27:04.017Z,2.00
2017-09-17T17:29:33.790Z,3.40
2017-09-17T17:32:02.404Z,2.60
2017-09-17T17:34:32.034Z,3.20
2017-09-17T17:37:00.456Z,3.17
2017-09-17T17:39:28.989Z,3.25
2017-09-17T17:41:57.595Z,3.10
2017-09-17T17:44:26.218Z,2.20
2017-09-17T17:46:54.797Z,2.83
2017-09-17T17:49:23.248Z,2.87
2017-09-17T17:51:51.933Z,2.15
2017-09-17T17:54:20.693Z,2.33
2017-09-17T17:56:49.359Z,2.30
2017-09-17T17:59:18.852Z,2.50
2017-09-17T18:01:48.187Z,3.37
2017-09-17T18:04:16.968Z,2.55
2017-09-17T18:06:46.079Z,2.60
2017-09-17T18:09:14.771Z,2.17
2017-09-17T18:11:43.546Z,2.10
2017-09-17T18:14:12.063Z,1.70
2017-09-17T18:16:40.683Z,2.12
2017-09-17T18:19:09.984Z,2.23
2017-09-17T18:21:38.272Z,2.40
2017-09-17T18:24:07.470Z,3.60
2017-09-17T18:26:36.710Z,1.40
2017-09-17T18:29:05.229Z,1.53
2017-09-17T18:31:33.769Z,2.90
2017-09-17T18:34:02.409Z,1.73
2017-09-17T18:36:30.864Z,1.43
2017-09-17T18:38:59.101Z,1.50
2017-09-17T18:41:27.440Z,1.50
2017-09-17T18:43:56.471Z,2.70
2017-09-17T18:46:25.131Z,1.83
2017-09-17T18:48:53.791Z,2.08
2017-09-17T18:51:22.630Z,1.80
2017-09-17T18:53:51.271Z,2.70
2017-09-17T18:56:20.691Z,2.50
2017-09-17T18:58:49.214Z,1.67
2017-09-17T19:01:17.951Z,1.90
2017-09-17T19:03:47.471Z,2.37
2017-09-17T19:06:16.420Z,1.62
2017-09-17T19:08:46.575Z,2.33
2017-09-17T19:11:15.273Z,1.92
2017-09-17T19:13:44.034Z,2.10
2017-09-17T19:16:13.493Z,2.00
2017-09-17T19:18:42.117Z,1.80
2017-09-17T19:21:11.528Z,2.30
2017-09-17T19:23:40.927Z,2.10
2017-09-17T19:26:10.309Z,1.95
2017-09-17T19:28:38.934Z,1.90
2017-09-17T19:31:07.608Z,1.50
2017-09-17T19:33:37.234Z,1.40
2017-09-17T19:36:05.807Z,1.35
2017-09-17T19:38:34.537Z,1.65
2017-09-17T19:41:03.064Z,1.33
2017-09-17T19:43:31.736Z,1.27
2017-09-17T19:46:01.500Z,2.15
2017-09-17T19:48:30.041Z,2.30
2017-09-17T19:50:58.601Z,1.40
2017-09-17T19:53:27.193Z,1.40
2017-09-17T19:55:56.593Z,1.20
2017-09-17T19:58:26.133Z,1.98
2017-09-17T20:00:54.635Z,2.78
2017-09-17T20:03:22.792Z,1.60
2017-09-17T20:05:51.225Z,1.50
2017-09-17T20:08:20.566Z,1.33
2017-09-17T20:10:48.746Z,1.53
2017-09-17T20:13:17.277Z,1.80
2017-09-17T20:15:46.037Z,1.67
2017-09-17T20:18:14.566Z,2.07
2017-09-17T20:20:43.060Z,2.30
2017-09-17T20:23:11.420Z,2.42
2017-09-17T20:25:40.797Z,2.40
2017-09-17T20:28:09.723Z,1.98
2017-09-17T20:30:38.489Z,2.75
2017-09-17T20:33:07.760Z,1.92
2017-09-17T20:35:36.149Z,2.90
2017-09-17T20:38:06.345Z,2.00
2017-09-17T20:40:34.708Z,2.50
2017-09-17T20:43:02.748Z,2.17
2017-09-17T20:45:31.440Z,1.80
2017-09-17T20:47:59.624Z,2.65
2017-09-17T20:50:28.175Z,3.47
2017-09-17T20:52:57.468Z,4.85
2017-09-17T20:55:26.099Z,2.53
2017-09-17T20:57:54.433Z,3.05
2017-09-17T21:00:23.963Z,1.70
2017-09-17T21:02:52.404Z,2.70
2017-09-17T21:05:20.976Z,1.20
2017-09-17T21:07:49.724Z,1.60
2017-09-17T21:10:18.486Z,1.80
2017-09-17T21:12:46.947Z,1.83
2017-09-17T21:15:16.267Z,2.60
2017-09-17T21:17:45.536Z,1.73
2017-09-17T21:20:14.672Z,2.35
2017-09-17T21:22:43.427Z,2.60
2017-09-17T21:25:12.800Z,1.98
2017-09-17T21:27:41.462Z,2.25
2017-09-17T21:30:10.240Z,1.40
2017-09-17T21:32:38.671Z,1.40
2017-09-17T21:35:07.272Z,1.48
2017-09-17T21:37:36.146Z,1.98
2017-09-17T21:40:04.556Z,1.73
2017-09-17T21:42:33.055Z,1.20
2017-09-17T21:45:01.708Z,1.90
2017-09-17T21:47:31.025Z,1.92
2017-09-17T21:49:59.481Z,1.45
2017-09-17T21:52:28.774Z,1.90
2017-09-17T21:54:58.169Z,1.40
2017-09-17T21:57:26.672Z,1.50
2017-09-17T21:59:56.253Z,1.42
2017-09-17T22:02:24.744Z,1.40
2017-09-17T22:04:53.432Z,1.30
2017-09-17T22:07:22.963Z,1.48
2017-09-17T22:09:51.303Z,1.27
2017-09-17T22:12:20.564Z,1.45
2017-09-17T22:14:49.324Z,1.40
2017-09-17T22:17:17.806Z,1.27
2017-09-17T22:19:46.058Z,2.10
2017-09-17T22:22:15.588Z,1.25
2017-09-17T22:24:44.048Z,1.00
2017-09-17T22:27:12.563Z,6.93
2017-09-17T22:29:41.119Z,1.48
2017-09-17T22:32:09.728Z,0.90
2017-09-17T22:34:38.149Z,1.42
2017-09-17T22:37:06.771Z,1.08
2017-09-17T22:39:35.239Z,1.60
2017-09-17T22:42:03.797Z,1.08
2017-09-17T22:44:32.390Z,1.30
2017-09-17T22:47:00.649Z,1.70
2017-09-17T22:49:30.546Z,1.27
2017-09-17T22:51:59.059Z,1.80
2017-09-17T22:54:27.459Z,1.00
2017-09-17T22:56:55.817Z,1.10
2017-09-17T22:59:25.211Z,1.30
2017-09-17T23:01:54.774Z,1.77
2017-09-17T23:04:23.414Z,1.50
2017-09-17T23:06:52.711Z,2.87
2017-09-17T23:09:22.012Z,1.05
2017-09-17T23:11:51.308Z,1.30
2017-09-17T23:14:20.529Z,1.30
2017-09-17T23:16:48.972Z,1.45
2017-09-17T23:19:17.366Z,1.12
2017-09-17T23:21:46.552Z,1.37
2017-09-17T23:24:15.812Z,1.58
2017-09-17T23:26:44.856Z,1.60
2017-09-17T23:29:14.039Z,1.52
2017-09-17T23:31:42.569Z,1.58
2017-09-17T23:34:11.206Z,1.73
2017-09-17T23:36:40.014Z,1.85
2017-09-17T23:39:08.171Z,1.62
2017-09-17T23:41:36.759Z,1.40
2017-09-17T23:44:06.158Z,1.70
2017-09-17T23:46:34.637Z,1.60
2017-09-17T23:49:03.615Z,1.90
2017-09-17T23:51:33.749Z,2.85
2017-09-17T23:54:03.088Z,1.58
2017-09-17T23:56:31.534Z,2.03
2017-09-17T23:59:00.635Z,1.60
